createdAt,value
2018-10-16T00:00:29.786Z,101241.99
2018-10-16T00:02:58.342Z,101238.48
2018-10-16T00:05:27.142Z,101235.38
2018-10-16T00:07:55.713Z,101239.27
2018-10-16T00:10:29.694Z,101244.04
2018-10-16T00:12:58.413Z,101245.83
2018-10-16T00:15:26.855Z,101244.88
2018-10-16T00:17:55.810Z,101241.31
2018-10-16T00:20:24.782Z,101243.41
2018-10-16T00:23:00.177Z,101246.83
2018-10-16T00:25:28.943Z,101257.32
2018-10-16T00:27:57.385Z,101261.58
2018-10-16T00:30:26.237Z,101265.88
2018-10-16T00:32:54.783Z,101257.48
2018-10-16T00:35:23.209Z,101256.95
2018-10-16T00:37:52.049Z,101261.20
2018-10-16T00:40:20.809Z,101260.31
2018-10-16T00:42:49.290Z,101252.45
2018-10-16T00:45:17.838Z,101250.25
2018-10-16T00:47:46.557Z,101251.50
2018-10-16T00:50:15.002Z,101254.07
2018-10-16T00:52:43.854Z,101247.88
2018-10-16T00:55:12.399Z,101246.57
2018-10-16T00:57:41.177Z,101211.00
2018-10-16T01:00:11.381Z,101245.62
2018-10-16T01:02:40.206Z,101239.91
2018-10-16T01:05:09.727Z,101238.19
2018-10-16T01:07:38.731Z,101235.92
2018-10-16T01:10:07.781Z,101235.45
2018-10-16T01:12:36.346Z,101237.19
2018-10-16T01:15:05.345Z,101240.59
2018-10-16T01:17:34.074Z,101243.94
2018-10-16T01:20:02.950Z,101248.25
2018-10-16T01:22:31.766Z,101249.03
2018-10-16T01:25:01.042Z,101242.82
2018-10-16T01:27:29.477Z,101246.70
2018-10-16T01:29:58.026Z,101255.77
2018-10-16T01:32:26.566Z,101258.80
2018-10-16T01:34:55.006Z,101264.10
2018-10-16T01:37:23.813Z,101266.36
2018-10-16T01:39:52.612Z,101258.49
2018-10-16T01:42:21.045Z,101265.05
2018-10-16T01:44:49.625Z,101254.98
2018-10-16T01:47:18.277Z,101260.53
2018-10-16T01:49:46.725Z,101262.20
2018-10-16T01:52:15.617Z,101252.09
2018-10-16T01:54:44.425Z,101245.90
2018-10-16T01:57:12.959Z,101240.60
2018-10-16T01:59:41.736Z,101246.68
2018-10-16T02:02:10.305Z,101253.23
2018-10-16T02:04:38.888Z,101250.61
2018-10-16T02:07:07.481Z,101256.74
2018-10-16T02:09:36.181Z,101247.94
2018-10-16T02:12:04.673Z,101223.30
2018-10-16T02:14:33.622Z,101248.41
2018-10-16T02:17:02.183Z,101259.84
2018-10-16T02:19:30.616Z,101255.48
2018-10-16T02:22:00.249Z,101255.55
2018-10-16T02:24:28.894Z,101257.22
2018-10-16T02:26:57.374Z,101259.37
2018-10-16T02:29:26.754Z,101268.06
2018-10-16T02:31:55.354Z,101268.48
2018-10-16T02:34:23.804Z,101276.70
2018-10-16T02:36:52.581Z,101279.55
2018-10-16T02:39:21.120Z,101287.30
2018-10-16T02:41:49.582Z,101288.97
2018-10-16T02:44:18.322Z,101297.24
2018-10-16T02:46:46.850Z,101296.35
2018-10-16T02:49:15.314Z,101289.74
2018-10-16T02:51:44.379Z,101289.27
2018-10-16T02:54:12.897Z,101293.98
2018-10-16T02:56:41.331Z,101289.45
2018-10-16T02:59:10.133Z,101291.66
2018-10-16T03:01:39.565Z,101287.97
2018-10-16T03:04:08.173Z,101291.43
2018-10-16T03:06:36.820Z,101289.59
2018-10-16T03:09:07.777Z,101297.86
2018-10-16T03:11:36.234Z,101304.47
2018-10-16T03:14:04.861Z,101314.53
2018-10-16T03:16:33.738Z,101325.84
2018-10-16T03:19:02.253Z,101335.37
2018-10-16T03:21:30.866Z,101330.61
2018-10-16T03:23:59.790Z,101325.91
2018-10-16T03:26:28.233Z,101345.13
2018-10-16T03:28:56.898Z,101340.97
2018-10-16T03:31:25.534Z,101346.56
2018-10-16T03:33:53.997Z,101345.13
2018-10-16T03:36:23.237Z,101348.58
2018-10-16T03:38:51.793Z,101349.36
2018-10-16T03:41:20.213Z,101351.80
2018-10-16T03:43:55.926Z,101362.63
2018-10-16T03:46:24.369Z,101366.44
2018-10-16T03:48:52.837Z,101373.75
2018-10-16T03:51:21.869Z,101366.31
2018-10-16T03:53:51.261Z,101374.16
2018-10-16T03:56:19.770Z,101372.73
2018-10-16T03:58:48.389Z,101370.47
2018-10-16T04:01:16.865Z,101369.64
2018-10-16T04:03:45.326Z,101370.59
2018-10-16T04:06:14.171Z,101364.65
2018-10-16T04:08:42.670Z,101364.23
2018-10-16T04:11:11.108Z,101373.81
2018-10-16T04:13:39.765Z,101380.77
2018-10-16T04:16:08.413Z,101380.30
2018-10-16T04:18:36.929Z,101376.37
2018-10-16T04:21:05.630Z,101381.12
2018-10-16T04:23:34.087Z,101391.89
2018-10-16T04:26:02.971Z,101390.88
2018-10-16T04:28:31.612Z,101381.65
2018-10-16T04:31:00.325Z,101388.20
2018-10-16T04:33:28.761Z,101377.83
2018-10-16T04:35:58.070Z,101398.12
2018-10-16T04:38:27.048Z,101404.13
2018-10-16T04:40:55.766Z,101412.87
2018-10-16T04:43:24.745Z,101406.33
2018-10-16T04:45:53.261Z,101412.75
2018-10-16T04:48:22.141Z,101335.30
2018-10-16T04:50:51.106Z,101413.58
2018-10-16T04:53:19.560Z,101413.52
2018-10-16T04:55:47.998Z,101415.72
2018-10-16T04:58:17.191Z,101417.57
2018-10-16T05:00:45.801Z,101417.70
2018-10-16T05:03:14.259Z,101417.28
2018-10-16T05:05:43.026Z,101418.94
2018-10-16T05:08:11.466Z,101425.97
2018-10-16T05:10:40.016Z,101431.68
2018-10-16T05:13:09.079Z,101426.03
2018-10-16T05:15:37.430Z,101432.09
2018-10-16T05:18:05.887Z,101436.86
2018-10-16T05:20:35.335Z,101431.97
2018-10-16T05:23:04.028Z,101431.97
2018-10-16T05:25:32.455Z,101435.06
2018-10-16T05:28:01.925Z,101445.25
2018-10-16T05:30:30.373Z,101450.48
2018-10-16T05:32:58.822Z,101462.27
2018-10-16T05:35:27.782Z,101466.20
2018-10-16T05:37:56.217Z,101465.30
2018-10-16T05:40:24.658Z,101464.69
2018-10-16T05:42:53.801Z,101474.69
2018-10-16T05:45:22.305Z,101482.06
2018-10-16T05:47:50.797Z,101484.67
2018-10-16T05:50:19.866Z,101485.98
2018-10-16T05:52:48.363Z,101484.61
2018-10-16T05:55:16.795Z,101485.98
2018-10-16T05:57:45.497Z,101487.84
2018-10-16T06:00:25.089Z,101496.23
2018-10-16T06:02:53.916Z,101491.06
2018-10-16T06:05:22.357Z,101501.61
2018-10-16T06:07:50.785Z,101513.11
2018-10-16T06:10:19.646Z,101509.85
2018-10-16T06:12:48.373Z,101509.15
2018-10-16T06:15:17.102Z,101504.11
2018-10-16T06:17:46.153Z,101502.70
2018-10-16T06:20:14.606Z,101500.11
2018-10-16T06:22:43.670Z,101505.44
2018-10-16T06:25:12.579Z,101497.27
2018-10-16T06:27:42.436Z,101510.50
2018-10-16T06:30:11.374Z,101501.23
2018-10-16T06:32:40.350Z,101493.19
2018-10-16T06:35:09.808Z,101489.61
2018-10-16T06:37:38.527Z,101516.36
2018-10-16T06:40:08.067Z,101518.92
2018-10-16T06:42:36.841Z,101535.96
2018-10-16T06:45:06.776Z,101528.20
2018-10-16T06:47:35.973Z,101524.80
2018-10-16T06:50:05.048Z,101535.35
2018-10-16T06:52:33.502Z,101537.92
2018-10-16T06:55:02.598Z,101542.58
2018-10-16T06:57:31.049Z,101549.38
2018-10-16T06:59:59.865Z,101553.27
2018-10-16T07:02:28.950Z,101555.89
2018-10-16T07:04:57.476Z,101553.27
2018-10-16T07:07:26.090Z,101561.42
2018-10-16T07:09:55.159Z,101565.41
2018-10-16T07:12:23.747Z,101558.69
2018-10-16T07:14:52.278Z,101562.58
2018-10-16T07:17:20.989Z,101561.88
2018-10-16T07:19:49.481Z,101568.11
2018-10-16T07:22:17.922Z,101577.89
2018-10-16T07:24:47.273Z,101576.43
2018-10-16T07:27:15.718Z,101568.23
2018-10-16T07:29:44.179Z,101573.49
2018-10-16T07:32:13.234Z,101578.48
2018-10-16T07:34:41.692Z,101576.34
2018-10-16T07:37:10.179Z,101580.08
2018-10-16T07:39:39.254Z,101589.03
2018-10-16T07:42:07.940Z,101585.49
2018-10-16T07:44:36.431Z,101591.80
2018-10-16T07:47:05.145Z,101596.27
2018-10-16T07:49:33.605Z,101588.77
2018-10-16T07:52:02.068Z,101589.11
2018-10-16T07:54:31.355Z,101589.63
2018-10-16T07:56:59.888Z,101586.80
2018-10-16T07:59:28.339Z,101596.27
2018-10-16T08:01:57.151Z,101612.80
2018-10-16T08:04:25.674Z,101611.03
2018-10-16T08:06:54.145Z,101615.72
2018-10-16T08:09:22.839Z,101623.02
2018-10-16T08:11:51.521Z,101623.30
2018-10-16T08:14:20.962Z,101633.55
2018-10-16T08:16:50.649Z,101634.48
2018-10-16T08:19:19.255Z,101630.61
2018-10-16T08:21:48.213Z,101640.01
2018-10-16T08:24:17.101Z,101639.66
2018-10-16T08:26:45.630Z,101642.80
2018-10-16T08:29:14.318Z,101638.26
2018-10-16T08:31:43.484Z,101646.05
2018-10-16T08:34:12.108Z,101638.95
2018-10-16T08:36:40.705Z,101641.38
2018-10-16T08:39:13.177Z,101648.70
2018-10-16T08:44:13.152Z,101654.73
2018-10-16T08:46:52.935Z,101665.06
2018-10-16T08:49:32.609Z,101659.66
2018-10-16T08:52:01.822Z,101664.77
2018-10-16T08:54:30.281Z,101667.69
2018-10-16T08:56:58.805Z,101668.03
2018-10-16T08:59:27.873Z,101668.41
2018-10-16T09:01:56.364Z,101668.36
2018-10-16T09:04:24.874Z,101675.80
2018-10-16T09:06:54.099Z,101674.95
2018-10-16T09:09:22.645Z,101671.05
2018-10-16T09:11:51.121Z,101671.69
2018-10-16T09:14:20.070Z,101674.88
2018-10-16T09:16:48.533Z,101676.80
2018-10-16T09:19:17.041Z,101677.69
2018-10-16T09:21:46.047Z,101678.16
2018-10-16T09:24:14.489Z,101676.38
2018-10-16T09:26:42.977Z,101682.54
2018-10-16T09:29:11.569Z,101687.77
2018-10-16T09:31:40.031Z,101700.52
2018-10-16T09:34:08.614Z,101698.40
2018-10-16T09:36:38.162Z,101700.09
2018-10-16T09:39:09.407Z,101708.38
2018-10-16T09:41:38.050Z,101706.98
2018-10-16T09:44:06.701Z,101709.57
2018-10-16T09:46:35.221Z,101711.69
2018-10-16T09:49:03.664Z,101710.70
2018-10-16T09:51:32.313Z,101719.38
2018-10-16T09:54:01.006Z,101720.12
2018-10-16T09:56:29.548Z,101721.78
2018-10-16T09:58:58.796Z,101724.83
2018-10-16T10:01:32.467Z,101733.45
2018-10-16T10:04:01.388Z,101732.41
2018-10-16T10:06:29.838Z,101740.97
2018-10-16T10:08:58.338Z,101737.81
2018-10-16T10:11:27.058Z,101741.30
2018-10-16T10:13:55.507Z,101739.56
2018-10-16T10:16:24.269Z,101738.29
2018-10-16T10:18:52.897Z,101707.91
2018-10-16T10:21:21.345Z,101742.23
2018-10-16T10:23:49.832Z,101737.49
2018-10-16T10:26:18.955Z,101734.16
2018-10-16T10:28:47.927Z,101739.56
2018-10-16T10:31:16.447Z,101731.33
2018-10-16T10:33:45.666Z,101729.59
2018-10-16T10:36:14.134Z,101732.22
2018-10-16T10:38:42.783Z,101737.58
2018-10-16T10:41:11.971Z,101735.47
2018-10-16T10:43:40.426Z,101734.80
2018-10-16T10:46:09.297Z,101732.44
2018-10-16T10:48:38.451Z,101722.92
2018-10-16T10:51:07.313Z,101722.64
2018-10-16T10:53:35.704Z,101728.89
2018-10-16T10:56:05.002Z,101723.66
2018-10-16T10:58:33.427Z,101721.11
2018-10-16T11:01:01.948Z,101720.78
2018-10-16T11:03:31.226Z,101723.88
2018-10-16T11:05:59.521Z,101717.84
2018-10-16T11:08:27.993Z,101715.30
2018-10-16T11:10:57.118Z,101723.33
2018-10-16T11:13:25.538Z,101722.06
2018-10-16T11:15:54.002Z,101724.86
2018-10-16T11:18:23.478Z,101725.75
2018-10-16T11:20:51.960Z,101724.80
2018-10-16T11:23:20.533Z,101723.72
2018-10-16T11:25:49.209Z,101722.36
2018-10-16T11:28:18.342Z,101727.52
2018-10-16T11:30:51.190Z,101730.42
2018-10-16T11:33:20.541Z,101731.70
2018-10-16T11:35:49.085Z,101724.17
2018-10-16T11:38:18.553Z,101725.48
2018-10-16T11:40:47.253Z,101722.97
2018-10-16T11:43:15.708Z,101720.03
2018-10-16T11:45:44.668Z,101712.11
2018-10-16T11:48:13.078Z,101714.25
2018-10-16T11:50:41.514Z,101715.64
2018-10-16T11:53:10.273Z,101713.47
2018-10-16T11:55:38.725Z,101718.87
2018-10-16T11:58:07.201Z,101722.05
2018-10-16T12:00:36.042Z,101721.24
2018-10-16T12:03:04.601Z,101727.53
2018-10-16T12:05:33.054Z,101732.80
2018-10-16T12:08:02.169Z,101735.33
2018-10-16T12:10:31.014Z,101731.64
2018-10-16T12:12:59.475Z,101732.72
2018-10-16T12:15:28.110Z,101731.32
2018-10-16T12:18:15.644Z,101720.64
2018-10-16T12:20:47.193Z,101730.69
2018-10-16T12:23:15.886Z,101731.11
2018-10-16T12:25:44.450Z,101728.09
2018-10-16T12:28:13.706Z,101735.36
2018-10-16T12:30:42.169Z,101735.64
2018-10-16T12:33:10.749Z,101736.14
2018-10-16T12:35:42.369Z,101737.54
2018-10-16T12:38:10.898Z,101741.58
2018-10-16T12:40:39.361Z,101746.09
2018-10-16T12:43:09.297Z,101747.36
2018-10-16T12:45:37.758Z,101752.88
2018-10-16T12:48:06.408Z,101753.17
2018-10-16T12:50:35.252Z,101754.41
2018-10-16T12:53:03.784Z,101754.80
2018-10-16T12:55:32.274Z,101753.28
2018-10-16T12:58:01.218Z,101759.80
2018-10-16T13:00:29.665Z,101758.39
2018-10-16T13:02:58.154Z,101758.39
2018-10-16T13:05:27.056Z,101761.49
2018-10-16T13:07:55.663Z,101758.27
2018-10-16T13:10:24.162Z,101758.60
2018-10-16T13:12:53.110Z,101762.00
2018-10-16T13:15:21.635Z,101764.98
2018-10-16T13:17:50.134Z,101770.73
2018-10-16T13:20:18.882Z,101772.98
2018-10-16T13:22:48.553Z,101765.41
2018-10-16T13:25:17.293Z,101764.81
2018-10-16T13:27:45.914Z,101771.74
2018-10-16T13:30:15.774Z,101769.48
2018-10-16T13:32:45.307Z,101776.92
2018-10-16T13:35:15.585Z,101783.00
2018-10-16T13:37:44.713Z,101787.30
2018-10-16T13:40:13.444Z,101788.05
2018-10-16T13:42:42.646Z,101790.13
2018-10-16T13:45:13.302Z,101771.50
2018-10-16T13:47:41.757Z,101772.77
2018-10-16T13:50:13.306Z,101770.51
2018-10-16T13:52:41.714Z,101766.42
2018-10-16T13:55:11.120Z,101772.83
2018-10-16T13:57:40.202Z,101778.19
2018-10-16T14:00:13.556Z,101776.21
2018-10-16T14:02:43.149Z,101781.02
2018-10-16T14:05:11.975Z,101781.81
2018-10-16T14:07:40.442Z,101780.02
2018-10-16T14:10:10.711Z,101776.50
2018-10-16T14:12:40.714Z,101778.56
2018-10-16T14:15:09.734Z,101776.48
2018-10-16T14:17:38.457Z,101783.86
2018-10-16T14:20:07.693Z,101778.55
2018-10-16T14:22:37.237Z,101780.81
2018-10-16T14:25:07.742Z,101784.61
2018-10-16T14:27:36.187Z,101789.26
2018-10-16T14:30:05.134Z,101787.76
2018-10-16T14:32:33.797Z,101786.39
2018-10-16T14:35:02.234Z,101784.12
2018-10-16T14:37:30.694Z,101786.61
2018-10-16T14:39:59.899Z,101783.50
2018-10-16T14:42:28.334Z,101786.56
2018-10-16T14:44:56.794Z,101780.75
2018-10-16T14:47:26.056Z,101773.17
2018-10-16T14:49:54.505Z,101777.13
2018-10-16T14:52:23.089Z,101774.49
2018-10-16T14:54:52.138Z,101769.59
2018-10-16T14:57:20.980Z,101768.70
2018-10-16T14:59:49.549Z,101770.02
2018-10-16T15:02:18.622Z,101769.17
2018-10-16T15:04:47.078Z,101775.39
2018-10-16T15:07:15.669Z,101775.86
2018-10-16T15:09:44.387Z,101776.76
2018-10-16T15:12:12.826Z,101774.07
2018-10-16T15:14:41.315Z,101774.34
2018-10-16T15:17:10.051Z,101776.40
2018-10-16T15:19:38.506Z,101778.45
2018-10-16T15:22:07.036Z,101772.72
2018-10-16T15:24:36.210Z,101776.56
2018-10-16T15:27:04.973Z,101779.03
2018-10-16T15:29:33.410Z,101778.52
2018-10-16T15:32:02.124Z,101780.56
2018-10-16T15:34:30.519Z,101783.14
2018-10-16T15:36:58.981Z,101787.77
2018-10-16T15:39:27.634Z,101777.93
2018-10-16T15:41:56.251Z,101779.03
2018-10-16T15:44:24.762Z,101790.13
2018-10-16T15:46:53.458Z,101784.38
2018-10-16T15:49:22.841Z,101789.17
2018-10-16T15:51:51.573Z,101794.43
2018-10-16T15:54:21.040Z,101793.95
2018-10-16T15:56:49.498Z,101791.27
2018-10-16T15:59:17.951Z,101792.64
2018-10-16T16:01:46.927Z,101792.70
2018-10-16T16:04:15.349Z,101804.11
2018-10-16T16:06:43.856Z,101800.28
2018-10-16T16:09:13.574Z,101799.38
2018-10-16T16:11:42.185Z,101799.27
2018-10-16T16:14:10.727Z,101798.27
2018-10-16T16:16:39.439Z,101796.90
2018-10-16T16:19:08.173Z,101796.78
2018-10-16T16:21:36.625Z,101793.15
2018-10-16T16:24:05.389Z,101793.45
2018-10-16T16:26:33.842Z,101784.51
2018-10-16T16:29:02.294Z,101786.66
2018-10-16T16:31:31.378Z,101787.39
2018-10-16T16:33:59.854Z,101786.27
2018-10-16T16:36:28.378Z,101784.61
2018-10-16T16:38:57.414Z,101790.17
2018-10-16T16:41:25.857Z,101796.03
2018-10-16T16:43:54.651Z,101794.48
2018-10-16T16:46:23.713Z,101793.05
2018-10-16T16:48:52.229Z,101792.48
2018-10-16T16:51:21.337Z,101803.98
2018-10-16T16:53:50.694Z,101804.88
2018-10-16T16:56:19.200Z,101801.27
2018-10-16T16:58:47.658Z,101804.97
2018-10-16T17:01:16.781Z,101800.97
2018-10-16T17:03:45.247Z,101801.81
2018-10-16T17:06:13.743Z,101791.17
2018-10-16T17:08:42.514Z,101794.58
2018-10-16T17:11:10.941Z,101796.67
2018-10-16T17:13:39.404Z,101795.53
2018-10-16T17:16:08.108Z,101798.88
2018-10-16T17:18:36.617Z,101809.80
2018-10-16T17:21:05.842Z,101808.84
2018-10-16T17:23:34.926Z,101813.68
2018-10-16T17:26:05.515Z,101815.83
2018-10-16T17:28:33.752Z,101809.55
2018-10-16T17:31:02.779Z,101813.37
2018-10-16T17:33:31.222Z,101815.81
2018-10-16T17:35:59.810Z,101816.65
2018-10-16T17:38:28.585Z,101820.59
2018-10-16T17:40:57.029Z,101818.31
2018-10-16T17:43:25.610Z,101825.77
2018-10-16T17:45:55.086Z,101826.73
2018-10-16T17:48:23.630Z,101827.69
2018-10-16T17:50:52.077Z,101831.28
2018-10-16T17:53:20.980Z,101836.72
2018-10-16T17:55:49.438Z,101836.36
2018-10-16T17:58:17.899Z,101836.00
2018-10-16T18:00:47.078Z,101835.59
2018-10-16T18:03:15.688Z,101835.52
2018-10-16T18:05:44.129Z,101828.96
2018-10-16T18:08:14.790Z,101836.48
2018-10-16T18:10:43.237Z,101835.59
2018-10-16T18:13:11.665Z,101832.12
2018-10-16T18:15:40.480Z,101820.19
2018-10-16T18:18:08.936Z,101816.72
2018-10-16T18:20:37.385Z,101820.72
2018-10-16T18:23:06.807Z,101807.23
2018-10-16T18:25:35.242Z,101805.63
2018-10-16T18:28:03.706Z,101803.36
2018-10-16T18:30:32.341Z,101804.61
2018-10-16T18:33:00.810Z,101809.92
2018-10-16T18:35:29.262Z,101815.30
2018-10-16T18:37:58.545Z,101809.75
2018-10-16T18:40:27.079Z,101803.59
2018-10-16T18:42:55.530Z,101810.64
2018-10-16T18:45:24.214Z,101811.00
2018-10-16T18:47:52.742Z,101806.94
2018-10-16T18:50:21.178Z,101811.71
2018-10-16T18:52:50.667Z,101811.11
2018-10-16T18:55:19.287Z,101808.30
2018-10-16T18:57:47.736Z,101811.41
2018-10-16T19:00:18.932Z,101809.50
2018-10-16T19:02:48.196Z,101813.84
2018-10-16T19:05:16.697Z,101819.94
2018-10-16T19:07:45.583Z,101826.31
2018-10-16T19:10:14.058Z,101829.36
2018-10-16T19:12:42.838Z,101826.67
2018-10-16T19:15:13.051Z,101820.46
2018-10-16T19:17:42.158Z,101825.23
2018-10-16T19:20:11.903Z,101832.56
2018-10-16T19:22:41.037Z,101828.62
2018-10-16T19:25:10.402Z,101824.70
2018-10-16T19:27:39.001Z,101826.42
2018-10-16T19:30:09.058Z,101811.50
2018-10-16T19:32:37.850Z,101815.38
2018-10-16T19:35:06.981Z,101810.96
2018-10-16T19:37:35.946Z,101816.81
2018-10-16T19:40:04.467Z,101812.05
2018-10-16T19:42:33.953Z,101813.77
2018-10-16T19:45:02.967Z,101798.38
2018-10-16T19:47:31.592Z,101793.19
2018-10-16T19:50:00.131Z,101794.44
2018-10-16T19:52:29.093Z,101785.60
2018-10-16T19:54:57.631Z,101791.21
2018-10-16T19:57:26.305Z,101785.77
2018-10-16T19:59:55.009Z,101784.39
2018-10-16T20:02:23.545Z,101794.90
2018-10-16T20:04:52.036Z,101796.85
2018-10-16T20:07:21.105Z,101798.17
2018-10-16T20:09:49.743Z,101793.33
2018-10-16T20:12:18.324Z,101794.94
2018-10-16T20:14:46.971Z,101794.33
2018-10-16T20:17:15.437Z,101781.02
2018-10-16T20:19:43.956Z,101774.39
2018-10-16T20:22:12.772Z,101775.23
2018-10-16T20:24:41.304Z,101777.38
2018-10-16T20:27:09.752Z,101775.16
2018-10-16T20:29:38.922Z,101740.64
2018-10-16T20:32:07.672Z,101770.08
2018-10-16T20:34:36.120Z,101762.43
2018-10-16T20:37:05.052Z,101759.27
2018-10-16T20:39:33.542Z,101751.39
2018-10-16T20:42:02.054Z,101752.77
2018-10-16T20:44:30.904Z,101752.77
2018-10-16T20:46:59.600Z,101758.30
2018-10-16T20:49:28.249Z,101757.41
2018-10-16T20:51:57.413Z,101771.00
2018-10-16T20:54:25.954Z,101764.45
2018-10-16T20:56:54.625Z,101764.38
2018-10-16T20:59:23.782Z,101759.14
2018-10-16T21:01:52.249Z,101756.52
2018-10-16T21:04:20.713Z,101757.83
2018-10-16T21:06:49.994Z,101756.92
2018-10-16T21:09:18.433Z,101758.24
2018-10-16T21:11:46.881Z,101750.78
2018-10-16T21:14:15.871Z,101754.17
2018-10-16T21:16:44.298Z,101754.05
2018-10-16T21:19:12.858Z,101751.77
2018-10-16T21:21:41.928Z,101755.58
2018-10-16T21:24:10.562Z,101755.23
2018-10-16T21:26:39.025Z,101750.47
2018-10-16T21:29:08.341Z,101744.80
2018-10-16T21:31:36.765Z,101749.16
2018-10-16T21:34:05.333Z,101750.47
2018-10-16T21:36:34.713Z,101752.61
2018-10-16T21:39:03.654Z,101752.19
2018-10-16T21:41:32.096Z,101751.36
2018-10-16T21:44:00.953Z,101743.97
2018-10-16T21:46:29.422Z,101739.20
2018-10-16T21:48:57.910Z,101741.89
2018-10-16T21:51:28.305Z,101737.48
2018-10-16T21:53:56.788Z,101730.98
2018-10-16T21:56:25.332Z,101715.78
2018-10-16T21:58:54.457Z,101724.61
2018-10-16T22:01:27.234Z,101718.05
2018-10-16T22:03:55.900Z,101714.60
2018-10-16T22:06:24.337Z,101712.94
2018-10-16T22:08:52.768Z,101716.88
2018-10-16T22:11:21.940Z,101716.94
2018-10-16T22:13:50.586Z,101707.21
2018-10-16T22:16:19.211Z,101703.75
2018-10-16T22:18:48.442Z,101709.48
2018-10-16T22:21:16.872Z,101711.69
2018-10-16T22:23:45.297Z,101711.81
2018-10-16T22:26:13.927Z,101710.14
2018-10-16T22:28:42.867Z,101710.20
2018-10-16T22:31:11.591Z,101709.02
2018-10-16T22:33:40.200Z,101712.60
2018-10-16T22:36:08.696Z,101702.23
2018-10-16T22:38:37.151Z,101701.04
2018-10-16T22:41:06.710Z,101707.66
2018-10-16T22:43:35.205Z,101700.75
2018-10-16T22:46:03.683Z,101711.72
2018-10-16T22:48:32.734Z,101703.91
2018-10-16T22:51:01.249Z,101704.39
2018-10-16T22:53:29.698Z,101698.78
2018-10-16T22:55:58.889Z,101703.20
2018-10-16T22:58:27.389Z,101698.91
2018-10-16T23:00:56.302Z,101701.53
2018-10-16T23:03:25.410Z,101702.01
2018-10-16T23:05:53.852Z,101700.16
2018-10-16T23:08:22.281Z,101700.98
2018-10-16T23:10:51.106Z,101705.05
2018-10-16T23:13:19.548Z,101698.13
2018-10-16T23:15:48.686Z,101700.39
2018-10-16T23:18:17.504Z,101693.77
2018-10-16T23:20:45.953Z,101690.55
2018-10-16T23:23:14.475Z,101693.05
2018-10-16T23:25:43.630Z,101692.58
2018-10-16T23:28:12.141Z,101691.27
2018-10-16T23:30:40.577Z,101693.11
2018-10-16T23:33:09.201Z,101691.38
2018-10-16T23:35:37.629Z,101686.49
2018-10-16T23:38:06.357Z,101673.19
2018-10-16T23:40:35.004Z,101670.92
2018-10-16T23:43:03.490Z,101673.01
2018-10-16T23:45:31.958Z,101670.27
2018-10-16T23:48:00.861Z,101667.16
2018-10-16T23:50:29.301Z,101664.59
2018-10-16T23:52:57.879Z,101668.11
2018-10-16T23:55:26.544Z,101659.28
2018-10-16T23:57:54.968Z,101651.42
